createdAt,value
2023-01-19T00:02:14.493Z,2.40
2023-01-19T00:05:20.960Z,2.29
2023-01-19T00:08:27.532Z,2.08
2023-01-19T00:11:33.376Z,1.94
2023-01-19T00:14:40.076Z,1.73
2023-01-19T00:17:48.496Z,1.77
2023-01-19T00:20:55.108Z,1.90
2023-01-19T00:24:00.852Z,1.99
2023-01-19T00:27:07.702Z,1.98
2023-01-19T00:30:15.419Z,1.96
2023-01-19T00:33:26.118Z,1.99
2023-01-19T00:36:32.091Z,2.03
2023-01-19T00:39:38.930Z,2.07
2023-01-19T00:42:48.488Z,2.09
2023-01-19T00:45:55.246Z,2.04
2023-01-19T00:49:03.662Z,1.97
2023-01-19T00:52:10.994Z,1.92
2023-01-19T00:55:19.490Z,1.85
2023-01-19T00:58:26.183Z,1.83
2023-01-19T01:01:45.907Z,1.80
2023-01-19T01:04:56.901Z,1.82
2023-01-19T01:08:02.870Z,1.90
2023-01-19T01:11:09.480Z,2.07
2023-01-19T01:14:16.653Z,2.21
2023-01-19T01:17:25.125Z,2.21
2023-01-19T01:20:34.930Z,2.16
2023-01-19T01:23:41.595Z,2.05
2023-01-19T01:26:47.446Z,1.93
2023-01-19T01:29:54.200Z,1.80
2023-01-19T01:33:00.358Z,1.69
2023-01-19T01:36:12.061Z,1.66
2023-01-19T01:39:18.059Z,1.65
2023-01-19T01:42:32.774Z,1.60
2023-01-19T01:45:42.021Z,1.59
2023-01-19T01:48:57.444Z,1.56
2023-01-19T01:52:06.315Z,1.62
2023-01-19T01:55:16.802Z,1.59
2023-01-19T01:58:22.705Z,1.66
2023-01-19T02:01:41.846Z,1.60
2023-01-19T02:04:55.119Z,1.57
2023-01-19T02:08:24.324Z,1.44
2023-01-19T02:11:45.335Z,1.57
2023-01-19T02:14:52.016Z,1.75
2023-01-19T02:17:58.728Z,1.98
2023-01-19T02:21:19.055Z,2.15
2023-01-19T02:24:29.629Z,2.38
2023-01-19T02:27:37.984Z,2.53
2023-01-19T02:30:45.578Z,2.63
2023-01-19T02:33:53.048Z,2.64
2023-01-19T02:37:06.818Z,2.77
2023-01-19T02:40:24.619Z,2.88
2023-01-19T02:43:33.784Z,2.97
2023-01-19T02:46:42.233Z,2.99
2023-01-19T02:49:48.189Z,2.96
2023-01-19T02:53:11.069Z,2.93
2023-01-19T02:56:56.046Z,2.98
2023-01-19T03:00:24.838Z,3.04
2023-01-19T03:03:42.365Z,3.01
2023-01-19T03:06:58.274Z,3.08
2023-01-19T03:10:16.073Z,3.11
2023-01-19T03:13:39.319Z,3.09
2023-01-19T03:16:50.953Z,3.10
2023-01-19T03:19:57.668Z,3.06
2023-01-19T03:23:11.215Z,3.01
2023-01-19T03:26:24.993Z,3.01
2023-01-19T03:29:38.133Z,3.03
2023-01-19T03:32:53.861Z,2.86
2023-01-19T03:36:07.268Z,2.76
2023-01-19T03:39:22.083Z,2.67
2023-01-19T03:42:31.292Z,2.74
2023-01-19T03:45:43.471Z,2.84
2023-01-19T03:48:51.055Z,2.77
2023-01-19T03:51:59.660Z,2.79
2023-01-19T03:55:09.983Z,2.82
2023-01-19T03:58:17.469Z,2.88
2023-01-19T04:01:26.453Z,2.97
2023-01-19T04:04:34.136Z,3.06
2023-01-19T04:07:39.953Z,3.08
2023-01-19T04:10:46.610Z,3.15
2023-01-19T04:13:52.795Z,3.16
2023-01-19T04:17:02.212Z,3.18
2023-01-19T04:20:10.791Z,3.22
2023-01-19T04:23:17.355Z,3.21
2023-01-19T04:26:23.271Z,3.22
2023-01-19T04:29:29.990Z,3.18
2023-01-19T04:32:38.461Z,3.05
2023-01-19T04:35:45.182Z,2.97
2023-01-19T04:38:51.237Z,2.94
2023-01-19T04:41:57.837Z,3.01
2023-01-19T04:45:03.873Z,3.06
2023-01-19T04:48:13.064Z,2.99
2023-01-19T04:51:18.838Z,2.91
2023-01-19T04:54:25.934Z,2.97
2023-01-19T04:57:32.003Z,3.03
2023-01-19T05:00:39.612Z,2.98
2023-01-19T05:03:48.087Z,3.00
2023-01-19T05:06:54.917Z,3.06
2023-01-19T05:10:00.868Z,2.98
2023-01-19T05:13:08.174Z,2.94
2023-01-19T05:16:14.291Z,2.92
2023-01-19T05:19:23.831Z,2.89
2023-01-19T05:22:29.814Z,2.87
2023-01-19T05:25:36.523Z,2.83
2023-01-19T05:28:42.463Z,2.76
2023-01-19T05:31:49.266Z,2.80
2023-01-19T05:34:57.809Z,2.82
2023-01-19T05:38:04.456Z,2.89
2023-01-19T05:41:10.292Z,2.89
2023-01-19T05:44:17.122Z,2.89
2023-01-19T05:47:22.905Z,2.74
2023-01-19T05:50:32.280Z,2.65
2023-01-19T05:53:38.136Z,2.67
2023-01-19T05:56:45.743Z,2.68
2023-01-19T05:59:51.598Z,2.69
2023-01-19T06:02:58.458Z,2.64
2023-01-19T06:06:07.964Z,2.52
2023-01-19T06:09:14.531Z,2.47
2023-01-19T06:12:20.316Z,2.41
2023-01-19T06:15:26.855Z,2.39
2023-01-19T06:18:33.648Z,2.42
2023-01-19T06:21:43.125Z,2.49
2023-01-19T06:24:49.024Z,2.52
2023-01-19T06:27:56.153Z,2.59
2023-01-19T06:31:01.989Z,2.59
2023-01-19T06:34:08.635Z,2.62
2023-01-19T06:37:17.864Z,2.55
2023-01-19T06:40:24.429Z,2.52
2023-01-19T06:43:33.549Z,2.50
2023-01-19T06:46:40.207Z,2.52
2023-01-19T06:49:46.797Z,2.54
2023-01-19T06:52:56.959Z,2.48
2023-01-19T06:56:05.104Z,2.42
2023-01-19T06:59:12.779Z,2.32
2023-01-19T07:06:10.363Z,1.89
2023-01-19T07:09:34.608Z,2.09
2023-01-19T07:12:42.410Z,1.76
2023-01-19T07:15:50.272Z,1.72
2023-01-19T07:18:56.319Z,1.81
2023-01-19T07:22:03.368Z,1.64
2023-01-19T07:25:13.363Z,1.79
2023-01-19T07:28:21.337Z,1.69
2023-01-19T07:31:27.693Z,1.70
2023-01-19T07:34:41.805Z,1.69
2023-01-19T07:41:46.011Z,1.75
2023-01-19T07:44:54.353Z,1.74
2023-01-19T07:48:00.717Z,1.73
2023-01-19T07:51:13.067Z,1.60
2023-01-19T07:54:20.942Z,1.70
2023-01-19T07:57:34.394Z,1.63
2023-01-19T08:00:42.176Z,1.92
2023-01-19T08:03:51.861Z,1.73
2023-01-19T08:07:01.986Z,2.05
2023-01-19T08:10:11.016Z,2.25
2023-01-19T08:13:19.481Z,2.43
2023-01-19T08:16:26.044Z,2.41
2023-01-19T08:19:34.365Z,2.38
2023-01-19T08:22:41.084Z,2.38
2023-01-19T08:25:47.701Z,2.35
2023-01-19T08:28:57.945Z,2.29
2023-01-19T08:32:04.043Z,2.24
2023-01-19T08:35:12.069Z,2.22
2023-01-19T08:38:21.199Z,2.25
2023-01-19T08:41:28.072Z,2.38
2023-01-19T08:44:39.393Z,2.39
2023-01-19T08:47:48.145Z,2.38
2023-01-19T08:50:56.296Z,2.35
2023-01-19T08:54:02.919Z,2.30
2023-01-19T08:57:08.624Z,2.21
2023-01-19T09:00:19.796Z,2.16
2023-01-19T09:03:26.030Z,2.12
2023-01-19T09:06:32.931Z,2.16
2023-01-19T09:09:43.543Z,2.17
2023-01-19T09:12:50.568Z,2.19
2023-01-19T09:15:59.055Z,2.17
2023-01-19T09:19:08.708Z,2.04
2023-01-19T09:22:14.717Z,2.04
2023-01-19T09:25:21.350Z,2.09
2023-01-19T09:28:27.306Z,2.10
2023-01-19T09:31:36.651Z,2.09
2023-01-19T09:34:42.708Z,2.06
2023-01-19T09:37:50.309Z,1.92
2023-01-19T09:40:59.422Z,1.67
2023-01-19T09:44:06.715Z,1.53
2023-01-19T09:47:25.400Z,1.38
2023-01-19T09:50:46.719Z,1.29
2023-01-19T09:54:06.093Z,1.35
2023-01-19T09:57:15.009Z,1.30
2023-01-19T10:00:22.876Z,1.32
2023-01-19T10:03:33.649Z,1.33
2023-01-19T10:06:40.079Z,1.45
2023-01-19T10:10:10.191Z,1.56
2023-01-19T10:13:42.195Z,1.64
2023-01-19T10:17:05.632Z,1.64
2023-01-19T10:20:26.937Z,1.72
2023-01-19T10:23:49.056Z,1.66
2023-01-19T10:27:00.083Z,1.74
2023-01-19T10:30:18.102Z,1.65
2023-01-19T10:33:24.135Z,1.55
2023-01-19T10:36:41.133Z,1.69
2023-01-19T10:39:49.065Z,1.74
2023-01-19T10:42:56.848Z,1.87
2023-01-19T10:46:03.293Z,1.93
2023-01-19T10:49:25.957Z,1.96
2023-01-19T10:52:41.374Z,1.98
2023-01-19T10:55:48.045Z,2.05
2023-01-19T10:58:54.874Z,2.13
2023-01-19T11:02:22.510Z,2.18
2023-01-19T11:05:32.581Z,2.12
2023-01-19T11:08:41.806Z,2.21
2023-01-19T11:11:52.368Z,2.11
2023-01-19T11:15:00.197Z,2.02
2023-01-19T11:18:10.383Z,2.04
2023-01-19T11:21:20.446Z,2.16
2023-01-19T11:24:29.540Z,2.17
2023-01-19T11:27:40.184Z,2.12
2023-01-19T11:30:59.459Z,2.10
2023-01-19T11:34:24.998Z,2.09
2023-01-19T11:37:34.893Z,1.95
2023-01-19T11:40:55.028Z,1.88
2023-01-19T11:44:12.923Z,1.85
2023-01-19T11:47:29.497Z,1.86
2023-01-19T11:50:45.567Z,1.88
2023-01-19T11:53:56.149Z,1.86
2023-01-19T11:57:17.800Z,1.82
2023-01-19T12:00:37.804Z,1.79
2023-01-19T12:03:54.864Z,1.78
2023-01-19T12:07:10.814Z,1.77
2023-01-19T12:10:28.840Z,1.85
2023-01-19T12:13:40.368Z,1.69
2023-01-19T12:16:48.866Z,1.76
2023-01-19T12:20:06.641Z,1.75
2023-01-19T12:23:38.229Z,1.69
2023-01-19T12:26:56.375Z,1.75
2023-01-19T12:30:07.260Z,1.87
2023-01-19T12:33:36.221Z,1.91
2023-01-19T12:36:44.162Z,1.83
2023-01-19T12:39:52.526Z,1.62
2023-01-19T12:43:08.735Z,1.60
2023-01-19T12:46:34.832Z,1.39
2023-01-19T12:49:48.659Z,1.45
2023-01-19T12:53:02.773Z,1.48
2023-01-19T12:56:12.936Z,1.48
2023-01-19T12:59:30.663Z,1.44
2023-01-19T13:02:58.972Z,1.39
2023-01-19T13:06:05.664Z,1.28
2023-01-19T13:09:33.498Z,1.24
2023-01-19T13:12:40.171Z,1.32
2023-01-19T13:15:47.334Z,1.46
2023-01-19T13:19:01.805Z,1.48
2023-01-19T13:22:53.130Z,1.49
2023-01-19T13:26:09.174Z,1.55
2023-01-19T13:29:25.969Z,1.52
2023-01-19T13:32:33.154Z,1.62
2023-01-19T13:35:41.909Z,1.68
2023-01-19T13:38:50.530Z,1.67
2023-01-19T13:42:03.012Z,1.64
2023-01-19T13:45:30.652Z,1.63
2023-01-19T13:48:37.270Z,1.45
2023-01-19T13:51:47.912Z,1.45
2023-01-19T13:55:02.357Z,1.45
2023-01-19T13:58:26.205Z,1.37
2023-01-19T14:01:33.170Z,1.24
2023-01-19T14:04:40.136Z,1.16
2023-01-19T14:07:48.637Z,1.19
2023-01-19T14:11:07.093Z,1.14
2023-01-19T14:14:27.574Z,1.16
2023-01-19T14:17:35.789Z,1.10
2023-01-19T14:20:42.725Z,1.15
2023-01-19T14:23:57.132Z,1.20
2023-01-19T14:27:26.221Z,1.27
2023-01-19T14:30:35.278Z,1.19
2023-01-19T14:33:47.262Z,1.14
2023-01-19T14:36:55.520Z,1.10
2023-01-19T14:40:20.367Z,1.08
2023-01-19T14:43:28.744Z,1.17
2023-01-19T14:46:34.841Z,1.12
2023-01-19T14:49:50.259Z,1.17
2023-01-19T14:53:03.676Z,1.13
2023-01-19T14:56:13.587Z,1.14
2023-01-19T14:59:19.419Z,1.11
2023-01-19T15:02:26.181Z,1.10
2023-01-19T15:05:32.313Z,1.09
2023-01-19T15:08:39.209Z,1.04
2023-01-19T15:11:52.594Z,1.02
2023-01-19T15:15:00.150Z,1.05
2023-01-19T15:18:10.032Z,1.18
2023-01-19T15:21:20.214Z,1.12
2023-01-19T15:24:27.969Z,1.14
2023-01-19T15:27:37.118Z,1.01
2023-01-19T15:30:43.380Z,1.09
2023-01-19T15:33:50.945Z,1.12
2023-01-19T15:36:56.859Z,1.16
2023-01-19T15:40:03.554Z,1.09
2023-01-19T15:43:13.703Z,0.97
2023-01-19T15:46:23.837Z,1.03
2023-01-19T15:49:31.072Z,1.02
2023-01-19T15:52:37.565Z,1.00
2023-01-19T15:55:46.148Z,0.92
2023-01-19T15:58:56.374Z,0.92
2023-01-19T16:02:02.885Z,0.94
2023-01-19T16:05:11.159Z,1.01
2023-01-19T16:08:17.702Z,0.99
2023-01-19T16:11:24.291Z,0.96
2023-01-19T16:14:32.915Z,1.00
2023-01-19T16:17:40.025Z,1.05
2023-01-19T16:20:45.955Z,1.06
2023-01-19T16:23:52.785Z,0.95
2023-01-19T16:26:58.651Z,1.03
2023-01-19T16:30:10.049Z,1.20
2023-01-19T16:33:16.397Z,1.28
2023-01-19T16:36:27.020Z,1.24
2023-01-19T16:39:32.896Z,1.21
2023-01-19T16:42:40.908Z,1.15
2023-01-19T16:46:04.677Z,1.15
2023-01-19T16:49:17.863Z,1.20
2023-01-19T16:52:23.846Z,1.24
2023-01-19T16:55:30.419Z,1.29
2023-01-19T16:58:37.632Z,1.30
2023-01-19T17:01:50.595Z,1.37
2023-01-19T17:04:56.678Z,1.41
2023-01-19T17:08:03.502Z,1.46
2023-01-19T17:11:19.578Z,1.46
2023-01-19T17:14:26.163Z,1.46
2023-01-19T17:17:35.342Z,1.42
2023-01-19T17:20:43.459Z,1.50
2023-01-19T17:23:53.654Z,1.55
2023-01-19T17:27:00.444Z,1.62
2023-01-19T17:30:06.424Z,1.74
2023-01-19T17:33:15.909Z,1.79
2023-01-19T17:36:25.566Z,1.80
2023-01-19T17:39:32.458Z,1.90
2023-01-19T17:42:43.771Z,1.79
2023-01-19T17:45:50.367Z,1.74
2023-01-19T17:49:01.723Z,1.61
2023-01-19T17:52:08.829Z,1.55
2023-01-19T17:55:15.049Z,1.50
2023-01-19T17:58:23.734Z,1.57
2023-01-19T18:01:32.647Z,1.57
2023-01-19T18:04:43.534Z,1.61
2023-01-19T18:07:50.191Z,1.56
2023-01-19T18:11:14.279Z,1.55
2023-01-19T18:14:20.234Z,1.59
2023-01-19T18:17:26.791Z,1.57
2023-01-19T18:20:37.852Z,1.35
2023-01-19T18:23:46.002Z,1.35
2023-01-19T18:26:53.218Z,1.39
2023-01-19T18:30:01.549Z,1.39
2023-01-19T18:33:07.731Z,1.43
2023-01-19T18:36:18.318Z,1.40
2023-01-19T18:39:24.238Z,1.52
2023-01-19T18:42:30.942Z,1.56
2023-01-19T18:45:38.289Z,1.59
2023-01-19T18:48:45.333Z,1.61
2023-01-19T18:51:53.850Z,1.60
2023-01-19T18:55:00.568Z,1.63
2023-01-19T18:58:07.279Z,1.67
2023-01-19T19:01:32.264Z,1.70
2023-01-19T19:04:38.729Z,1.67
2023-01-19T19:07:48.313Z,1.73
2023-01-19T19:10:54.411Z,1.79
2023-01-19T19:14:04.825Z,1.86
2023-01-19T19:17:11.007Z,1.90
2023-01-19T19:20:18.130Z,1.84
2023-01-19T19:23:26.769Z,1.68
2023-01-19T19:26:33.326Z,1.65
2023-01-19T19:29:39.213Z,1.55
2023-01-19T19:32:45.731Z,1.52
2023-01-19T19:35:51.670Z,1.50
2023-01-19T19:39:02.795Z,1.45
2023-01-19T19:42:08.762Z,1.36
2023-01-19T19:45:16.130Z,1.41
2023-01-19T19:48:23.136Z,1.40
2023-01-19T19:51:31.282Z,1.39
2023-01-19T19:54:42.092Z,1.42
2023-01-19T19:57:48.915Z,1.41
2023-01-19T20:00:55.236Z,1.43
2023-01-19T20:04:10.971Z,1.50
2023-01-19T20:07:18.032Z,1.57
2023-01-19T20:10:30.145Z,1.62
2023-01-19T20:13:37.316Z,1.69
2023-01-19T20:16:43.972Z,1.79
2023-01-19T20:19:49.999Z,1.83
2023-01-19T20:22:56.673Z,1.84
2023-01-19T20:26:08.111Z,1.85
2023-01-19T20:29:15.212Z,1.89
2023-01-19T20:32:23.036Z,1.86
2023-01-19T20:35:29.874Z,1.84
2023-01-19T20:38:36.260Z,1.83
2023-01-19T20:41:46.315Z,1.86
2023-01-19T20:44:52.416Z,1.94
2023-01-19T20:47:59.115Z,2.02
2023-01-19T20:51:08.579Z,2.06
2023-01-19T20:54:17.850Z,2.08
2023-01-19T20:57:26.664Z,2.14
2023-01-19T21:00:33.429Z,2.23
2023-01-19T21:03:39.393Z,2.27
2023-01-19T21:06:48.052Z,2.23
2023-01-19T21:09:53.858Z,2.09
2023-01-19T21:13:03.031Z,2.06
2023-01-19T21:16:11.032Z,2.02
2023-01-19T21:19:18.101Z,1.98
2023-01-19T21:22:26.329Z,1.95
2023-01-19T21:25:37.477Z,1.93
2023-01-19T21:28:46.440Z,1.97
2023-01-19T21:31:57.552Z,2.04
2023-01-19T21:35:03.630Z,2.07
2023-01-19T21:38:10.784Z,2.15
2023-01-19T21:41:17.364Z,2.23
2023-01-19T21:44:26.818Z,2.28
2023-01-19T21:47:32.684Z,2.40
2023-01-19T21:50:39.861Z,2.46
2023-01-19T21:53:47.363Z,2.42
2023-01-19T21:56:54.197Z,2.34
2023-01-19T22:00:02.684Z,2.38
2023-01-19T22:03:14.721Z,2.32
2023-01-19T22:06:20.697Z,2.35
2023-01-19T22:09:27.345Z,2.40
2023-01-19T22:12:33.255Z,2.41
2023-01-19T22:15:42.551Z,2.49
2023-01-19T22:18:54.215Z,2.51
2023-01-19T22:22:02.351Z,2.54
2023-01-19T22:25:09.482Z,2.62
2023-01-19T22:28:16.216Z,2.68
2023-01-19T22:31:26.305Z,2.72
2023-01-19T22:34:32.986Z,2.68
2023-01-19T22:37:40.155Z,2.70
2023-01-19T22:40:46.720Z,2.68
2023-01-19T22:43:56.680Z,2.76
2023-01-19T22:47:05.853Z,2.71
2023-01-19T22:50:13.511Z,2.73
2023-01-19T22:53:20.073Z,2.67
2023-01-19T22:56:28.944Z,2.59
2023-01-19T22:59:35.617Z,2.58
2023-01-19T23:02:44.053Z,2.60
2023-01-19T23:05:50.748Z,2.57
2023-01-19T23:09:00.491Z,2.58
2023-01-19T23:12:08.009Z,2.64
2023-01-19T23:15:14.909Z,2.64
2023-01-19T23:18:24.241Z,2.57
2023-01-19T23:21:33.558Z,2.58
2023-01-19T23:24:40.402Z,2.63
2023-01-19T23:27:46.247Z,2.65
2023-01-19T23:30:53.031Z,2.61
2023-01-19T23:34:05.034Z,2.54
2023-01-19T23:37:12.027Z,2.51
2023-01-19T23:40:18.314Z,2.55
2023-01-19T23:43:24.894Z,2.56
2023-01-19T23:46:31.396Z,2.61
2023-01-19T23:49:41.355Z,2.56
2023-01-19T23:52:47.310Z,2.49
2023-01-19T23:55:53.950Z,2.42
2023-01-19T23:59:02.792Z,2.34
